Wells Town, Mississippi
Current Conditions -  °F | °C
As of 10:53 AM on Tuesday 21 Oct 2014 (Local Time) from KHBG Reporting Station
Clear Clear  
Wind Chill: 73°   Ceiling: Unl
Heat Index: 73°   Visibility: 10mi
Dew Point: 54°   Wind: 5mph
Humidity: 51%   Direction: NA
Pressure: 30.09"   Gusts: NA
Location:  31.0601°N, 89.4815°W
Report Text: KHBG 211553Z AUTO VRB04KT 10SM CLR 23/12 A3009 RMK AO2 SLP187 T02280122
Loading
Personal Weather Stations






























Interactive Weather Map New forecast layout! Learn more

10-Day Weather Forecast

Advertisements
Track Severe Weather on mobile